Time;durP1;ratioP1;P1;durP2;ratioP2;P2;SDS_P1;SDS_P2;PMS_P1;PMS_P2;Temp;Humidity;BMP_temperature;BMP_pressure;BME280_temperature;BME280_humidity;BME280_pressure;Samples;Min_cycle;Max_cycle;Signal;HPM_P1;HPM_P2
2023/03/26 00:01:06;;;;;;;;;;;;;;;7.40;62.64;96247.94;108929;1251;99697;-73
2023/03/26 00:03:39;;;;;;;;;;;;;;;7.41;62.44;96250.33;108895;1251;95584;-73
2023/03/26 00:06:12;;;;;;;;;;;;;;;7.41;62.36;96250.12;108903;1251;95761;-73
2023/03/26 00:08:41;;;;;;;;;;;;;;;7.42;62.35;96248.84;108902;1251;103448;-74
2023/03/26 00:11:10;;;;;;;;;;;;;;;7.44;62.05;96253.77;108905;1251;101513;-74
2023/03/26 00:13:40;;;;;;;;;;;;;;;7.44;62.05;96246.75;108892;1251;100106;-74
2023/03/26 00:16:08;;;;;;;;;;;;;;;7.45;62.01;96248.11;108909;1251;95607;-75
2023/03/26 00:18:36;;;;;;;;;;;;;;;7.47;61.82;96244.22;108910;1251;96195;-74
2023/03/26 00:21:05;;;;;;;;;;;;;;;7.49;61.61;96247.16;108940;1251;103482;-74
2023/03/26 00:23:34;;;;;;;;;;;;;;;7.49;61.60;96245.45;108699;1251;101250;-74
2023/03/26 00:26:03;;;;;;;;;;;;;;;7.49;61.43;96244.14;108630;1252;100280;-73
2023/03/26 00:28:31;;;;;;;;;;;;;;;7.48;61.35;96240.98;108627;1254;95569;-73
2023/03/26 00:31:00;;;;;;;;;;;;;;;7.47;61.16;96241.11;108924;1251;95573;-74
2023/03/26 00:33:28;;;;;;;;;;;;;;;7.45;61.09;96237.66;108976;1251;103268;-75
2023/03/26 00:35:57;;;;;;;;;;;;;;;7.44;61.04;96238.04;108759;1250;101304;-73
2023/03/26 00:38:25;;;;;;;;;;;;;;;7.43;61.03;96236.55;108896;1251;99816;-74
2023/03/26 00:40:55;;;;;;;;;;;;;;;7.42;61.00;96234.95;108887;1251;95755;-73
2023/03/26 00:43:25;;;;;;;;;;;;;;;7.41;60.98;96233.96;108791;1251;95680;-74
2023/03/26 00:45:55;;;;;;;;;;;;;;;7.41;61.23;96233.43;108912;1251;103693;-74
2023/03/26 00:48:23;;;;;;;;;;;;;;;7.41;61.17;96239.66;108961;1251;101236;-73
2023/03/26 00:50:50;;;;;;;;;;;;;;;7.42;61.19;96236.90;108932;1251;99982;-73
2023/03/26 00:53:18;;;;;;;;;;;;;;;7.39;61.16;96234.77;108900;1251;95523;-73
2023/03/26 00:55:47;;;;;;;;;;;;;;;7.37;61.10;96233.87;108993;1251;95662;-73
2023/03/26 00:58:16;;;;;;;;;;;;;;;7.36;61.15;96230.09;108767;1251;103097;-72
2023/03/26 01:00:49;;;;;;;;;;;;;;;7.34;61.10;96229.58;108969;1251;101335;-74
2023/03/26 01:03:18;;;;;;;;;;;;;;;7.34;61.23;96226.23;108879;1251;100127;-73
2023/03/26 01:05:51;;;;;;;;;;;;;;;7.33;61.45;96226.00;108876;1251;95562;-75
2023/03/26 01:08:24;;;;;;;;;;;;;;;7.33;61.38;96224.48;108942;1252;95714;-74
2023/03/26 01:11:01;;;;;;;;;;;;;;;7.32;61.34;96228.64;108928;1251;103620;-75
2023/03/26 01:13:31;;;;;;;;;;;;;;;7.31;61.46;96231.09;108906;1251;101346;-75
2023/03/26 01:16:00;;;;;;;;;;;;;;;7.32;61.51;96228.73;108671;1251;99450;-74
2023/03/26 01:18:32;;;;;;;;;;;;;;;7.31;61.61;96234.02;108945;1252;95574;-73
2023/03/26 01:21:08;;;;;;;;;;;;;;;7.30;61.64;96234.02;108938;1251;96408;-74
2023/03/26 01:23:44;;;;;;;;;;;;;;;7.27;61.72;96238.88;108924;1251;104034;-74
2023/03/26 01:26:20;;;;;;;;;;;;;;;7.24;61.89;96244.27;108937;1251;101470;-73
2023/03/26 01:28:47;;;;;;;;;;;;;;;7.21;62.20;96247.81;108938;1251;100094;-74
2023/03/26 01:31:24;;;;;;;;;;;;;;;7.19;62.27;96247.41;108913;1251;95517;-74
2023/03/26 01:34:12;;;;;;;;;;;;;;;7.16;62.41;96242.18;108936;1251;95598;-73
2023/03/26 01:36:40;;;;;;;;;;;;;;;7.15;62.73;96234.02;108977;1251;103177;-73
2023/03/26 01:39:25;;;;;;;;;;;;;;;7.13;62.59;96229.98;108973;1250;101455;-75
2023/03/26 01:41:56;;;;;;;;;;;;;;;7.13;62.84;96229.70;108924;1251;100079;-73
2023/03/26 01:44:30;;;;;;;;;;;;;;;7.10;63.06;96224.48;108895;1251;95542;-74
2023/03/26 01:47:00;;;;;;;;;;;;;;;7.09;63.21;96217.94;108916;1251;95949;-73
2023/03/26 01:49:29;;;;;;;;;;;;;;;7.08;63.31;96216.08;108973;1251;103281;-74
2023/03/26 01:51:58;;;;;;;;;;;;;;;7.07;63.39;96219.52;108896;1251;101424;-75
2023/03/26 01:54:27;;;;;;;;;;;;;;;7.09;63.45;96222.61;108854;1251;99759;-73
2023/03/26 01:57:14;;;;;;;;;;;;;;;7.09;63.66;96218.63;108943;1251;95547;-74
2023/03/26 02:00:03;;;;;;;;;;;;;;;7.07;63.68;96213.98;108985;1251;95590;-73
2023/03/26 02:02:39;;;;;;;;;;;;;;;7.05;63.80;96208.21;108956;1251;103598;-73
2023/03/26 02:05:07;;;;;;;;;;;;;;;7.03;64.01;96208.14;108888;1251;100052;-73
2023/03/26 02:07:42;;;;;;;;;;;;;;;7.03;64.03;96205.83;108631;1251;99671;-74
2023/03/26 02:10:13;;;;;;;;;;;;;;;7.03;63.92;96198.57;108883;1251;95499;-74
2023/03/26 02:12:41;;;;;;;;;;;;;;;7.04;64.08;96193.45;108913;1251;95755;-74
2023/03/26 02:15:10;;;;;;;;;;;;;;;7.03;64.42;96203.02;108991;1250;103637;-74
2023/03/26 02:17:39;;;;;;;;;;;;;;;7.01;64.79;96211.45;108893;1251;101364;-72
2023/03/26 02:20:13;;;;;;;;;;;;;;;6.99;65.04;96209.80;108686;1251;100130;-74
2023/03/26 02:22:44;;;;;;;;;;;;;;;6.95;65.16;96212.58;108861;1251;96338;-73
2023/03/26 02:25:14;;;;;;;;;;;;;;;6.91;64.99;96210.09;108943;1251;95633;-74
2023/03/26 02:27:42;;;;;;;;;;;;;;;6.90;64.97;96206.17;108919;1250;103222;-73
2023/03/26 02:30:11;;;;;;;;;;;;;;;6.87;64.88;96205.21;108947;1251;100012;-74
2023/03/26 02:32:40;;;;;;;;;;;;;;;6.89;65.08;96201.81;108863;1251;99650;-75
2023/03/26 02:35:08;;;;;;;;;;;;;;;6.92;64.83;96199.10;108948;1251;95505;-74
2023/03/26 02:37:36;;;;;;;;;;;;;;;6.94;64.69;96199.88;108931;1251;95602;-73
2023/03/26 02:40:09;;;;;;;;;;;;;;;6.96;64.61;96202.84;108947;1251;103453;-74
2023/03/26 02:42:37;;;;;;;;;;;;;;;6.97;64.78;96200.86;108890;1251;101712;-75
2023/03/26 02:45:06;;;;;;;;;;;;;;;6.99;64.77;96201.95;108874;1251;100024;-74
2023/03/26 02:47:34;;;;;;;;;;;;;;;6.99;64.76;96206.63;108944;1251;95536;-74
2023/03/26 02:50:02;;;;;;;;;;;;;;;6.98;64.58;96208.48;108711;1251;95671;-73
2023/03/26 02:52:30;;;;;;;;;;;;;;;6.99;64.60;96198.52;108903;1251;103697;-74
2023/03/26 02:54:58;;;;;;;;;;;;;;;7.02;64.62;96205.67;108905;1251;101536;-75
2023/03/26 02:57:26;;;;;;;;;;;;;;;7.03;64.52;96208.52;108893;1251;99766;-73
2023/03/26 02:59:54;;;;;;;;;;;;;;;7.02;64.42;96209.91;108878;1251;95615;-74
2023/03/26 03:02:23;;;;;;;;;;;;;;;7.02;64.42;96208.19;108905;1251;95586;-74
2023/03/26 03:04:51;;;;;;;;;;;;;;;7.03;64.38;96203.39;108906;1251;103223;-75
2023/03/26 03:07:21;;;;;;;;;;;;;;;7.04;64.22;96200.70;108901;1251;101054;-73
2023/03/26 03:09:49;;;;;;;;;;;;;;;7.05;64.22;96207.06;108888;1251;99936;-75
2023/03/26 03:12:17;;;;;;;;;;;;;;;7.05;64.24;96201.94;108921;1251;95560;-72
2023/03/26 03:14:45;;;;;;;;;;;;;;;7.05;64.09;96199.13;108753;1251;95693;-74
2023/03/26 03:17:13;;;;;;;;;;;;;;;7.03;64.15;96201.16;108927;1251;103672;-73
2023/03/26 03:19:41;;;;;;;;;;;;;;;7.01;64.13;96200.88;108921;1250;101492;-74
2023/03/26 03:22:09;;;;;;;;;;;;;;;7.01;63.97;96199.41;108918;1251;99512;-73
2023/03/26 03:24:37;;;;;;;;;;;;;;;7.01;63.91;96203.50;108910;1251;95542;-73
2023/03/26 03:27:05;;;;;;;;;;;;;;;7.02;64.04;96204.17;108953;1251;95582;-74
2023/03/26 03:29:33;;;;;;;;;;;;;;;7.04;63.92;96199.67;108974;1251;103580;-72
2023/03/26 03:32:01;;;;;;;;;;;;;;;7.04;63.96;96196.33;108949;1251;101162;-73
2023/03/26 03:34:29;;;;;;;;;;;;;;;7.05;64.01;96196.19;108954;1251;100041;-74
2023/03/26 03:36:57;;;;;;;;;;;;;;;7.06;64.13;96195.04;108877;1251;95520;-73
2023/03/26 03:39:25;;;;;;;;;;;;;;;7.06;64.00;96193.64;108947;1251;95608;-74
2023/03/26 03:41:53;;;;;;;;;;;;;;;7.06;63.88;96189.80;108951;1251;103664;-73
2023/03/26 03:44:21;;;;;;;;;;;;;;;7.06;63.98;96182.48;108709;1251;101383;-75
2023/03/26 03:46:52;;;;;;;;;;;;;;;7.07;64.02;96184.05;108921;1251;100004;-74
2023/03/26 03:49:20;;;;;;;;;;;;;;;7.05;63.82;96187.98;108856;1251;95517;-73
2023/03/26 03:51:48;;;;;;;;;;;;;;;7.03;63.94;96187.62;108930;1251;95721;-74
2023/03/26 03:54:16;;;;;;;;;;;;;;;6.98;64.01;96183.30;108769;1251;103708;-74
2023/03/26 03:56:46;;;;;;;;;;;;;;;6.97;63.96;96181.58;108907;1251;101441;-74
2023/03/26 03:59:14;;;;;;;;;;;;;;;6.97;64.00;96181.75;108918;1251;99449;-73
2023/03/26 04:01:45;;;;;;;;;;;;;;;6.98;64.06;96188.96;108922;1251;95587;-74
2023/03/26 04:04:13;;;;;;;;;;;;;;;6.97;64.14;96185.41;108993;1251;95649;-73
2023/03/26 04:06:41;;;;;;;;;;;;;;;6.98;64.14;96187.64;108903;1251;103697;-73
2023/03/26 04:09:09;;;;;;;;;;;;;;;6.99;64.12;96185.28;108941;1250;101965;-73
2023/03/26 04:11:37;;;;;;;;;;;;;;;7.00;64.03;96185.15;108918;1251;98584;-75
2023/03/26 04:14:05;;;;;;;;;;;;;;;7.00;64.07;96187.61;108868;1251;95523;-74
2023/03/26 04:16:33;;;;;;;;;;;;;;;7.01;63.78;96185.70;108976;1251;95603;-73
2023/03/26 04:19:02;;;;;;;;;;;;;;;7.04;63.89;96181.59;108846;1251;102909;-74
2023/03/26 04:21:30;;;;;;;;;;;;;;;7.06;63.87;96178.65;108983;1251;101357;-74
2023/03/26 04:24:00;;;;;;;;;;;;;;;7.07;63.81;96180.38;108643;1251;100087;-74
2023/03/26 04:26:29;;;;;;;;;;;;;;;7.08;63.75;96177.28;108877;1251;95630;-74
2023/03/26 04:29:02;;;;;;;;;;;;;;;7.08;63.72;96179.67;108977;1251;95785;-73
2023/03/26 04:31:30;;;;;;;;;;;;;;;7.08;63.69;96171.83;108961;1250;103663;-75
2023/03/26 04:34:05;;;;;;;;;;;;;;;7.09;63.79;96176.53;108953;1250;101343;-74
2023/03/26 04:36:34;;;;;;;;;;;;;;;7.10;63.88;96173.96;108896;1251;99940;-75
2023/03/26 04:39:04;;;;;;;;;;;;;;;7.12;63.96;96180.10;108868;1251;95581;-75
2023/03/26 04:41:32;;;;;;;;;;;;;;;7.14;63.83;96181.39;108767;1251;95940;-75
2023/03/26 04:44:00;;;;;;;;;;;;;;;7.14;63.65;96183.61;108962;1250;103112;-74
2023/03/26 04:46:32;;;;;;;;;;;;;;;7.14;63.77;96180.85;108954;1253;101263;-74
2023/03/26 04:49:00;;;;;;;;;;;;;;;7.15;63.88;96179.97;108904;1251;99471;-74
2023/03/26 04:51:33;;;;;;;;;;;;;;;7.17;63.86;96179.71;108697;1251;95679;-73
2023/03/26 04:54:02;;;;;;;;;;;;;;;7.17;63.84;96182.02;108942;1251;95966;-74
2023/03/26 04:56:36;;;;;;;;;;;;;;;7.19;63.89;96180.81;108914;1251;103727;-74
2023/03/26 04:59:05;;;;;;;;;;;;;;;7.20;63.85;96178.16;108942;1250;101183;-75
2023/03/26 05:01:36;;;;;;;;;;;;;;;7.21;63.79;96175.52;108925;1251;99704;-73
2023/03/26 05:04:04;;;;;;;;;;;;;;;7.20;63.72;96173.98;108950;1251;95634;-74
2023/03/26 05:06:33;;;;;;;;;;;;;;;7.21;63.81;96179.68;108941;1251;95612;-75
2023/03/26 05:09:02;;;;;;;;;;;;;;;7.22;63.93;96181.29;108989;1251;102602;-73
2023/03/26 05:11:29;;;;;;;;;;;;;;;7.23;63.86;96182.89;108689;1250;101141;-74
2023/03/26 05:13:57;;;;;;;;;;;;;;;7.24;63.69;96188.91;108906;1251;99716;-74
2023/03/26 05:16:26;;;;;;;;;;;;;;;7.23;63.85;96186.07;108721;1253;95569;-73
2023/03/26 05:18:54;;;;;;;;;;;;;;;7.22;63.70;96189.09;108969;1251;95634;-74
2023/03/26 05:21:22;;;;;;;;;;;;;;;7.22;63.70;96187.40;108954;1250;103362;-74
2023/03/26 05:23:50;;;;;;;;;;;;;;;7.21;63.66;96190.92;108930;1251;101823;-73
2023/03/26 05:26:18;;;;;;;;;;;;;;;7.22;63.75;96190.80;108926;1251;100065;-73
2023/03/26 05:28:46;;;;;;;;;;;;;;;7.24;63.78;96191.93;108882;1251;95541;-74
2023/03/26 05:31:15;;;;;;;;;;;;;;;7.25;63.74;96194.74;108908;1251;95638;-74
2023/03/26 05:33:43;;;;;;;;;;;;;;;7.26;63.74;96196.92;108905;1250;102703;-73
2023/03/26 05:36:14;;;;;;;;;;;;;;;7.27;63.65;96199.23;108961;1251;100488;-73
2023/03/26 05:38:46;;;;;;;;;;;;;;;7.25;63.54;96193.76;108896;1251;108780;-74
2023/03/26 05:41:13;;;;;;;;;;;;;;;7.25;63.60;96194.30;108890;1251;95559;-75
2023/03/26 05:43:42;;;;;;;;;;;;;;;7.25;63.57;96194.29;108891;1251;95567;-73
2023/03/26 05:46:10;;;;;;;;;;;;;;;7.24;63.51;96188.77;108958;1251;103235;-73
2023/03/26 05:48:38;;;;;;;;;;;;;;;7.24;63.59;96187.37;108758;1251;101266;-73
2023/03/26 05:51:07;;;;;;;;;;;;;;;7.26;63.63;96184.33;108902;1251;100192;-74
2023/03/26 05:53:35;;;;;;;;;;;;;;;7.29;63.64;96183.73;108919;1251;95516;-75
2023/03/26 05:56:03;;;;;;;;;;;;;;;7.33;63.66;96177.71;108683;1251;95705;-74
2023/03/26 05:58:33;;;;;;;;;;;;;;;7.38;63.62;96181.51;108739;1251;103686;-74
2023/03/26 06:01:07;;;;;;;;;;;;;;;7.44;63.66;96181.13;108912;1251;101588;-73
2023/03/26 06:03:39;;;;;;;;;;;;;;;7.50;63.45;96177.87;108877;1251;99980;-76
2023/03/26 06:06:08;;;;;;;;;;;;;;;7.55;63.49;96178.29;108883;1251;95904;-76
2023/03/26 06:08:36;;;;;;;;;;;;;;;7.58;63.35;96181.52;108887;1251;95615;-75
2023/03/26 06:11:06;;;;;;;;;;;;;;;7.58;63.28;96181.31;108987;1251;103596;-74
2023/03/26 06:13:34;;;;;;;;;;;;;;;7.60;63.21;96185.97;108918;1251;101101;-76
2023/03/26 06:16:02;;;;;;;;;;;;;;;7.61;63.20;96184.53;108886;1251;99560;-74
2023/03/26 06:18:30;;;;;;;;;;;;;;;7.62;63.08;96188.86;108861;1251;95510;-74
2023/03/26 06:20:58;;;;;;;;;;;;;;;7.66;63.28;96194.03;108914;1251;95713;-74
2023/03/26 06:23:26;;;;;;;;;;;;;;;7.69;63.11;96198.31;108893;1251;103465;-74
2023/03/26 06:25:54;;;;;;;;;;;;;;;7.69;63.01;96194.18;108897;1250;101380;-73
2023/03/26 06:28:23;;;;;;;;;;;;;;;7.72;62.99;96187.83;108922;1251;99635;-74
2023/03/26 06:30:51;;;;;;;;;;;;;;;7.77;63.02;96188.71;108932;1251;95549;-74
2023/03/26 06:33:19;;;;;;;;;;;;;;;7.82;62.99;96184.00;108982;1251;96016;-75
2023/03/26 06:35:47;;;;;;;;;;;;;;;7.88;63.05;96183.58;108938;1250;103489;-74
2023/03/26 06:38:15;;;;;;;;;;;;;;;7.95;63.10;96182.45;108980;1251;101650;-74
2023/03/26 06:40:43;;;;;;;;;;;;;;;7.97;62.72;96183.19;108911;1251;99013;-74
2023/03/26 06:43:11;;;;;;;;;;;;;;;7.97;62.63;96183.19;108893;1251;96024;-75
2023/03/26 06:45:39;;;;;;;;;;;;;;;7.96;62.54;96185.52;108971;1251;95580;-74
2023/03/26 06:48:07;;;;;;;;;;;;;;;7.96;62.45;96182.21;108988;1251;103845;-75
2023/03/26 06:50:35;;;;;;;;;;;;;;;7.99;62.32;96179.23;108946;1251;101459;-75
2023/03/26 06:53:03;;;;;;;;;;;;;;;7.99;62.24;96179.43;108884;1251;98959;-74
2023/03/26 06:55:31;;;;;;;;;;;;;;;8.00;62.10;96177.24;108738;1251;95880;-74
2023/03/26 06:57:59;;;;;;;;;;;;;;;8.04;62.08;96179.36;108927;1251;95795;-74
2023/03/26 07:00:27;;;;;;;;;;;;;;;8.13;62.09;96179.20;108952;1251;102575;-73
2023/03/26 07:02:55;;;;;;;;;;;;;;;8.21;62.01;96181.46;108902;1251;101677;-75
2023/03/26 07:05:23;;;;;;;;;;;;;;;8.25;61.87;96183.52;108639;1251;100061;-74
2023/03/26 07:07:51;;;;;;;;;;;;;;;8.28;61.76;96190.02;108896;1251;95640;-74
2023/03/26 07:10:19;;;;;;;;;;;;;;;8.35;61.71;96193.96;108913;1251;95627;-73
2023/03/26 07:12:47;;;;;;;;;;;;;;;8.44;61.65;96191.12;108981;1250;103587;-73
2023/03/26 07:15:15;;;;;;;;;;;;;;;8.52;61.47;96191.34;108923;1251;100438;-74
2023/03/26 07:17:43;;;;;;;;;;;;;;;8.56;61.24;96187.41;108954;1251;99954;-74
2023/03/26 07:20:11;;;;;;;;;;;;;;;8.57;61.11;96190.98;108882;1251;95506;-74
2023/03/26 07:22:39;;;;;;;;;;;;;;;8.57;61.15;96191.16;108958;1251;95591;-74
2023/03/26 07:25:08;;;;;;;;;;;;;;;8.59;61.13;96190.86;108722;1251;102600;-75
2023/03/26 07:27:35;;;;;;;;;;;;;;;8.61;61.00;96189.64;108898;1251;101105;-74
2023/03/26 07:30:06;;;;;;;;;;;;;;;8.62;60.89;96188.80;108858;1251;99987;-74
2023/03/26 07:32:34;;;;;;;;;;;;;;;8.62;60.88;96192.36;108868;1253;95869;-74
2023/03/26 07:35:04;;;;;;;;;;;;;;;8.62;60.96;96188.05;108888;1251;95886;-74
2023/03/26 07:37:38;;;;;;;;;;;;;;;8.62;60.75;96187.35;108917;1250;103996;-74
2023/03/26 07:40:16;;;;;;;;;;;;;;;8.61;60.87;96182.10;108913;1251;101478;-74
2023/03/26 07:42:47;;;;;;;;;;;;;;;8.62;60.93;96180.24;108873;1251;99539;-74
2023/03/26 07:45:21;;;;;;;;;;;;;;;8.63;60.68;96179.10;108589;1252;96000;-75
2023/03/26 07:47:52;;;;;;;;;;;;;;;8.65;60.77;96179.54;108911;1251;95637;-75
2023/03/26 07:50:22;;;;;;;;;;;;;;;8.68;60.76;96177.14;108729;1250;102936;-74
2023/03/26 07:52:50;;;;;;;;;;;;;;;8.72;60.79;96171.23;108928;1251;101432;-74
2023/03/26 07:55:18;;;;;;;;;;;;;;;8.77;60.75;96167.77;108885;1251;100095;-73
2023/03/26 07:57:52;;;;;;;;;;;;;;;8.85;60.77;96166.54;108843;1251;95552;-74
2023/03/26 08:00:22;;;;;;;;;;;;;;;8.98;60.86;96157.33;108718;1251;227339;-74
2023/03/26 08:02:50;;;;;;;;;;;;;;;9.27;60.86;96154.75;108965;1251;102376;-76
2023/03/26 08:05:21;;;;;;;;;;;;;;;9.62;60.46;96156.80;108637;1250;100986;-75
2023/03/26 08:07:50;;;;;;;;;;;;;;;10.18;60.10;96161.95;108683;1252;100488;-74
2023/03/26 08:10:18;;;;;;;;;;;;;;;10.62;59.47;96162.48;108882;1250;95611;-74
2023/03/26 08:13:06;;;;;;;;;;;;;;;10.81;58.85;96160.80;108934;1251;95644;-75
2023/03/26 08:15:59;;;;;;;;;;;;;;;10.86;58.05;96161.32;108250;1259;103583;-75
2023/03/26 08:18:40;;;;;;;;;;;;;;;10.80;57.55;96169.14;108279;1259;101026;-74
2023/03/26 08:21:12;;;;;;;;;;;;;;;10.68;57.01;96163.02;108252;1259;98424;-74
2023/03/26 08:23:59;;;;;;;;;;;;;;;10.55;56.84;96160.23;108262;1259;95906;-73
2023/03/26 08:26:28;;;;;;;;;;;;;;;10.43;56.63;96157.17;108281;1259;95702;-73
2023/03/26 08:29:02;;;;;;;;;;;;;;;10.40;56.64;96153.81;108287;1259;103720;-74
2023/03/26 08:31:34;;;;;;;;;;;;;;;10.38;56.44;96153.79;108301;1259;101312;-73
2023/03/26 08:34:02;;;;;;;;;;;;;;;10.38;56.55;96152.01;108073;1259;100094;-74
2023/03/26 08:36:30;;;;;;;;;;;;;;;10.42;56.46;96151.16;108245;1259;95550;-74
2023/03/26 08:38:59;;;;;;;;;;;;;;;10.45;56.18;96152.64;108276;1259;95642;-74
2023/03/26 08:41:48;;;;;;;;;;;;;;;10.47;56.13;96150.24;108248;1259;103341;-74
2023/03/26 08:44:36;;;;;;;;;;;;;;;10.53;56.07;96148.16;108278;1259;110987;-74
2023/03/26 08:47:04;;;;;;;;;;;;;;;10.60;55.84;96143.56;107845;1267;108883;-75
2023/03/26 08:49:51;;;;;;;;;;;;;;;10.70;55.64;96138.09;107841;1267;95687;-75
2023/03/26 08:52:31;;;;;;;;;;;;;;;10.78;55.55;96134.63;107920;1258;95756;-74
2023/03/26 08:55:14;;;;;;;;;;;;;;;11.16;55.34;96136.54;108358;1258;103303;-73
2023/03/26 08:57:51;;;;;;;;;;;;;;;11.58;55.01;96134.01;108340;1258;101509;-75
2023/03/26 09:00:31;;;;;;;;;;;;;;;12.14;55.00;96133.44;108278;1258;99562;-74
2023/03/26 09:03:01;;;;;;;;;;;;;;;12.56;53.98;96136.23;108301;1259;95648;-74
2023/03/26 09:05:29;;;;;;;;;;;;;;;12.93;53.45;96129.19;108336;1257;95840;-74
2023/03/26 09:08:26;;;;;;;;;;;;;;;13.29;52.36;96127.99;108314;1258;103534;-73
2023/03/26 09:11:13;;;;;;;;;;;;;;;13.40;51.79;96116.39;107966;1265;100653;-73
2023/03/26 09:13:59;;;;;;;;;;;;;;;13.76;51.79;96116.73;107917;1265;100027;-73
2023/03/26 09:16:39;;;;;;;;;;;;;;;13.85;50.58;96119.11;107981;1264;95653;-72
2023/03/26 09:19:25;;;;;;;;;;;;;;;13.55;49.58;96118.10;107970;1264;95775;-72
2023/03/26 09:22:11;;;;;;;;;;;;;;;13.20;49.79;96117.14;107982;1264;103940;-73
2023/03/26 09:24:48;;;;;;;;;;;;;;;12.90;49.73;96114.64;108152;1259;101481;-74
2023/03/26 09:27:35;;;;;;;;;;;;;;;12.72;49.98;96117.13;108087;1259;100137;-72
2023/03/26 09:30:21;;;;;;;;;;;;;;;12.57;49.88;96119.63;108235;1260;95566;-71
2023/03/26 09:32:49;;;;;;;;;;;;;;;12.42;50.08;96115.09;108269;1259;95703;-73
2023/03/26 09:35:36;;;;;;;;;;;;;;;12.30;50.22;96114.75;108275;1259;103517;-72
2023/03/26 09:38:15;;;;;;;;;;;;;;;12.19;50.15;96110.17;108308;1259;101025;-72
2023/03/26 09:40:51;;;;;;;;;;;;;;;12.09;50.15;96115.68;108272;1259;99224;-74
2023/03/26 09:43:35;;;;;;;;;;;;;;;11.97;50.17;96118.46;108260;1259;95728;-72
2023/03/26 09:46:15;;;;;;;;;;;;;;;11.86;50.11;96116.52;108283;1259;96026;-73
2023/03/26 09:48:52;;;;;;;;;;;;;;;11.73;50.09;96119.67;108845;1251;103823;-72
2023/03/26 09:51:33;;;;;;;;;;;;;;;11.60;50.07;96113.28;108960;1251;101194;-72
2023/03/26 09:54:04;;;;;;;;;;;;;;;11.55;50.22;96111.92;108696;1251;99929;-73
2023/03/26 09:56:51;;;;;;;;;;;;;;;11.57;50.32;96109.02;108882;1251;95518;-73
2023/03/26 09:59:25;;;;;;;;;;;;;;;11.62;50.24;96106.11;108989;1251;96631;-72
2023/03/26 10:02:11;;;;;;;;;;;;;;;11.68;50.22;96107.38;108938;1251;103503;-73
2023/03/26 10:04:48;;;;;;;;;;;;;;;11.70;50.21;96112.72;108932;1251;101363;-72
2023/03/26 10:07:28;;;;;;;;;;;;;;;11.68;50.06;96113.93;108894;1251;99577;-72
2023/03/26 10:10:02;;;;;;;;;;;;;;;11.62;49.28;96104.48;108919;1251;95536;-73
2023/03/26 10:12:33;;;;;;;;;;;;;;;11.60;49.49;96104.79;108717;1251;95567;-72
2023/03/26 10:15:19;;;;;;;;;;;;;;;11.57;49.59;96101.08;108928;1250;103783;-72
2023/03/26 10:17:47;;;;;;;;;;;;;;;11.59;49.58;96104.89;108848;1253;101360;-73
2023/03/26 10:20:26;;;;;;;;;;;;;;;11.60;49.54;96102.63;108861;1251;99484;-72
2023/03/26 10:22:57;;;;;;;;;;;;;;;11.63;49.48;96104.06;108904;1251;95519;-72
2023/03/26 10:25:57;;;;;;;;;;;;;;;11.63;49.46;96100.33;108879;1251;96460;-72
2023/03/26 10:28:44;;;;;;;;;;;;;;;11.65;49.27;96102.15;108241;1259;103751;-73
2023/03/26 10:31:27;;;;;;;;;;;;;;;11.61;49.15;96104.91;108276;1259;100070;-72
2023/03/26 10:34:10;;;;;;;;;;;;;;;11.52;49.27;96107.55;108211;1259;99396;-72
2023/03/26 10:36:46;;;;;;;;;;;;;;;11.38;49.21;96107.34;108251;1259;95594;-72
2023/03/26 10:39:18;;;;;;;;;;;;;;;11.31;49.38;96104.20;108313;1259;95732;-72
2023/03/26 10:42:04;;;;;;;;;;;;;;;11.27;49.51;96102.19;108316;1260;103256;-73
2023/03/26 10:44:53;;;;;;;;;;;;;;;11.19;49.54;96103.91;108309;1259;100684;-72
2023/03/26 10:47:39;;;;;;;;;;;;;;;11.12;49.85;96104.30;108188;1260;99040;-72
2023/03/26 10:50:23;;;;;;;;;;;;;;;11.05;49.67;96107.44;108124;1259;95675;-73
2023/03/26 10:53:02;;;;;;;;;;;;;;;10.99;49.88;96109.88;108272;1260;95636;-73
2023/03/26 10:55:38;;;;;;;;;;;;;;;10.99;50.10;96105.27;108276;1259;103828;-73
2023/03/26 10:58:12;;;;;;;;;;;;;;;11.03;50.24;96103.66;108309;1259;101232;-73
2023/03/26 11:00:44;;;;;;;;;;;;;;;11.18;50.44;96100.23;108283;1259;100016;-73
2023/03/26 11:03:13;;;;;;;;;;;;;;;11.34;50.32;96096.58;108149;1259;96210;-73
2023/03/26 11:05:56;;;;;;;;;;;;;;;11.41;50.24;96095.66;108937;1251;95792;-73
2023/03/26 11:08:30;;;;;;;;;;;;;;;11.42;50.13;96094.65;108913;1251;103215;-73
2023/03/26 11:11:16;;;;;;;;;;;;;;;11.39;49.99;96092.52;108966;1251;100076;-73
2023/03/26 11:13:53;;;;;;;;;;;;;;;11.35;50.21;96093.52;108881;1251;100388;-73
2023/03/26 11:16:25;;;;;;;;;;;;;;;11.30;50.07;96090.85;108907;1251;95547;-74
2023/03/26 11:19:31;;;;;;;;;;;;;;;11.27;50.05;96089.44;108925;1251;95601;-73
2023/03/26 11:22:11;;;;;;;;;;;;;;;11.24;49.87;96086.64;108281;1260;103596;-72
2023/03/26 11:24:46;;;;;;;;;;;;;;;11.19;49.88;96085.98;108295;1260;100500;-73
2023/03/26 11:27:21;;;;;;;;;;;;;;;11.18;49.98;96085.54;108276;1259;99982;-72
2023/03/26 11:30:15;;;;;;;;;;;;;;;11.16;50.04;96090.48;108279;1260;95649;-72
2023/03/26 11:32:45;;;;;;;;;;;;;;;11.14;49.88;96083.91;108308;1259;95791;-72
2023/03/26 11:35:19;;;;;;;;;;;;;;;11.09;49.96;96086.86;108250;1260;103268;-74
2023/03/26 11:37:57;;;;;;;;;;;;;;;11.14;50.38;96081.25;108251;1259;101454;-73
2023/03/26 11:40:30;;;;;;;;;;;;;;;11.31;50.71;96078.81;108248;1259;99836;-73
2023/03/26 11:43:00;;;;;;;;;;;;;;;11.44;50.63;96078.94;108262;1260;95615;-71
2023/03/26 11:45:31;;;;;;;;;;;;;;;11.51;50.37;96077.27;108233;1263;95682;-73
2023/03/26 11:47:59;;;;;;;;;;;;;;;11.54;50.23;96071.91;108073;1259;103614;-73
2023/03/26 11:50:29;;;;;;;;;;;;;;;11.53;49.98;96068.36;108294;1259;101517;-72
2023/03/26 11:53:11;;;;;;;;;;;;;;;11.48;49.83;96069.27;108559;1255;99840;-73
2023/03/26 11:55:42;;;;;;;;;;;;;;;11.42;49.98;96069.73;108882;1251;95542;-73
2023/03/26 11:58:21;;;;;;;;;;;;;;;11.36;50.17;96063.55;108949;1251;95612;-73
2023/03/26 12:00:51;;;;;;;;;;;;;;;11.33;50.15;96067.83;108911;1251;103593;-74
2023/03/26 12:03:20;;;;;;;;;;;;;;;11.31;50.05;96067.42;108770;1251;101109;-73
2023/03/26 12:05:57;;;;;;;;;;;;;;;11.33;50.05;96063.72;108624;1254;98873;-72
2023/03/26 12:08:38;;;;;;;;;;;;;;;11.51;50.37;96057.95;108872;1254;95745;-73
2023/03/26 12:11:11;;;;;;;;;;;;;;;11.82;50.51;96057.73;108678;1251;95761;-73
2023/03/26 12:13:41;;;;;;;;;;;;;;;12.03;50.13;96053.39;108945;1251;103692;-73
2023/03/26 12:16:18;;;;;;;;;;;;;;;12.14;49.58;96053.74;108917;1251;101829;-73
2023/03/26 12:18:47;;;;;;;;;;;;;;;12.17;49.35;96048.42;108746;1251;100264;-73
2023/03/26 12:21:17;;;;;;;;;;;;;;;12.14;49.25;96053.14;108873;1252;95566;-73
2023/03/26 12:23:56;;;;;;;;;;;;;;;12.08;49.11;96052.92;108917;1251;95569;-72
2023/03/26 12:26:38;;;;;;;;;;;;;;;11.98;48.93;96055.66;108873;1251;103443;-73
2023/03/26 12:29:09;;;;;;;;;;;;;;;11.84;48.78;96052.32;108948;1251;101113;-73
2023/03/26 12:31:56;;;;;;;;;;;;;;;11.74;48.77;96049.40;108880;1251;99956;-73
2023/03/26 12:34:30;;;;;;;;;;;;;;;11.69;48.85;96050.84;108747;1251;95561;-73
2023/03/26 12:36:59;;;;;;;;;;;;;;;11.61;48.98;96043.83;108966;1251;95634;-72
2023/03/26 12:39:33;;;;;;;;;;;;;;;11.52;48.92;96037.83;108868;1251;103776;-73
2023/03/26 12:42:02;;;;;;;;;;;;;;;11.48;49.04;96029.55;108906;1251;101314;-72
2023/03/26 12:44:34;;;;;;;;;;;;;;;11.50;49.11;96027.45;108905;1251;99929;-73
2023/03/26 12:47:11;;;;;;;;;;;;;;;11.50;49.17;96024.81;108909;1251;95531;-73
2023/03/26 12:49:40;;;;;;;;;;;;;;;11.54;49.26;96022.61;108907;1251;95542;-72
2023/03/26 12:52:20;;;;;;;;;;;;;;;11.64;49.32;96016.52;108997;1251;103523;-72
2023/03/26 12:54:54;;;;;;;;;;;;;;;11.76;49.21;96006.95;108945;1251;101463;-73
2023/03/26 12:57:25;;;;;;;;;;;;;;;11.95;49.15;95999.45;108811;1251;99197;-72
2023/03/26 13:00:12;;;;;;;;;;;;;;;12.19;48.91;95993.09;108877;1251;95514;-73
2023/03/26 13:02:42;;;;;;;;;;;;;;;12.36;48.52;95991.15;108937;1251;96557;-73
2023/03/26 13:05:29;;;;;;;;;;;;;;;12.48;48.51;95991.63;108944;1251;103707;-73